Terminal Aerodrome Forecast
Issued by NWS

Home | Current Version | Previous Version | Text Only | Print | Product List | Glossary On
Versions: 1 2 3 4 5 6 7 8 9 10 11 12
952
FTUS45 KREV 281122
TAFMMH
TAF
KMMH 281122Z 2812/2912 VRB04KT P6SM SKC
     FM281700 12007KT P6SM SKC
     FM282300 28009G16KT P6SM SCT060 SCT140
     FM290400 30006KT P6SM FEW060=

USA.gov is the U.S. government's official web portal to all federal, state and local government web resources and services.